UAE24 EGPH-OMDB
Flight info
| Callsign | UAE24 |
|---|---|
| Flight time | N/A |
| Altitude | 25000 |
| Route | TLA Y96 OTBUN/N0474F330 DCT NATEB DCT GODOS DCT BERGI DCT DOJOH/N0473F350 DCT DODEN DCT NEGIX DCT DINKU M867 XERUM DCT BAVAX DCT RADIZ DCT MODRO DCT DARZA DCT PINDO DCT PAXIS Y707 OBRAN L321 REXUM M872 HGD/N0479F370 M872 BDB Y214 RAPMA DCT KUVSO DCT KATIT DCT PEKEM M628 RIGIL G783 ELUDA/N0472F350 G783 ASPED Q308 KIPOK Q568 IMPED |
| Aircraft | B77W/H-SDE1E2E3FGHIJ2J3J4J5M1RWXY/LB1D1 |
Departure
| Time | 2026-04-30 21:55 |
|---|---|
| Airport | Edinburgh Airport (EGPH) |
Arrival
| Time | N/A |
|---|---|
| Airport | Dubai International Airport (OMDB) |
| Time | Latitude | Longitude | Altitude | Speed | Heading |
|---|---|---|---|---|---|
| 2026-04-30 21:11 | 55.94958 | -3.35999 | 110 ft | 0 kts | 255° |
| 2026-04-30 21:44 | 55.94960 | -3.35989 | 110 ft | 2 kts | 257° |
| 2026-04-30 21:45 | 55.94962 | -3.35963 | 110 ft | 2 kts | 272° |
| 2026-04-30 21:45 | 55.94960 | -3.35937 | 110 ft | 2 kts | 284° |
| 2026-04-30 21:45 | 55.94955 | -3.35912 | 111 ft | 2 kts | 296° |
| 2026-04-30 21:45 | 55.94947 | -3.35889 | 111 ft | 2 kts | 305° |
| 2026-04-30 21:46 | 55.94939 | -3.35867 | 112 ft | 2 kts | 304° |
| 2026-04-30 21:46 | 55.94930 | -3.35845 | 112 ft | 2 kts | 302° |
| 2026-04-30 21:46 | 55.94922 | -3.35822 | 112 ft | 2 kts | 303° |
| 2026-04-30 21:46 | 55.94915 | -3.35801 | 112 ft | 1 kts | 303° |
| 2026-04-30 21:47 | 55.94914 | -3.35800 | 112 ft | 0 kts | 303° |
| 2026-04-30 21:48 | 55.94922 | -3.35818 | 112 ft | 4 kts | 307° |
| 2026-04-30 21:49 | 55.94969 | -3.35858 | 112 ft | 11 kts | 2° |
| 2026-04-30 21:49 | 55.95051 | -3.35868 | 111 ft | 13 kts | 322° |
| 2026-04-30 21:49 | 55.95099 | -3.36028 | 109 ft | 16 kts | 289° |
| 2026-04-30 21:49 | 55.95132 | -3.36208 | 109 ft | 14 kts | 279° |
| 2026-04-30 21:50 | 55.95102 | -3.36375 | 109 ft | 15 kts | 239° |
| 2026-04-30 21:50 | 55.95044 | -3.36547 | 108 ft | 17 kts | 239° |
| 2026-04-30 21:50 | 55.94981 | -3.36734 | 108 ft | 18 kts | 239° |
| 2026-04-30 21:50 | 55.94914 | -3.36931 | 107 ft | 18 kts | 238° |
| 2026-04-30 21:51 | 55.94850 | -3.37115 | 108 ft | 17 kts | 239° |
| 2026-04-30 21:51 | 55.94791 | -3.37295 | 108 ft | 16 kts | 239° |
| 2026-04-30 21:51 | 55.94730 | -3.37476 | 108 ft | 16 kts | 239° |
| 2026-04-30 21:51 | 55.94671 | -3.37650 | 109 ft | 16 kts | 239° |
| 2026-04-30 21:52 | 55.94616 | -3.37813 | 111 ft | 14 kts | 239° |
| 2026-04-30 21:52 | 55.94565 | -3.37962 | 113 ft | 13 kts | 239° |
| 2026-04-30 21:52 | 55.94515 | -3.38110 | 115 ft | 14 kts | 239° |
| 2026-04-30 21:52 | 55.94459 | -3.38273 | 117 ft | 16 kts | 239° |
| 2026-04-30 21:53 | 55.94399 | -3.38450 | 118 ft | 17 kts | 239° |
| 2026-04-30 21:53 | 55.94337 | -3.38633 | 119 ft | 13 kts | 239° |
| 2026-04-30 21:53 | 55.94300 | -3.38739 | 121 ft | 5 kts | 239° |
| 2026-04-30 21:53 | 55.94289 | -3.38786 | 122 ft | 2 kts | 259° |
| 2026-04-30 21:54 | 55.94289 | -3.38812 | 122 ft | 2 kts | 276° |
| 2026-04-30 21:54 | 55.94298 | -3.38864 | 122 ft | 6 kts | 307° |
| 2026-04-30 21:54 | 55.94348 | -3.38932 | 121 ft | 11 kts | 327° |
| 2026-04-30 21:54 | 55.94421 | -3.38941 | 120 ft | 11 kts | 45° |
| 2026-04-30 21:55 | 55.94500 | -3.38721 | 116 ft | 47 kts | 60° |
| 2026-04-30 21:55 | 55.94804 | -3.37825 | 108 ft | 120 kts | 58° |
| 2026-04-30 21:55 | 55.95332 | -3.36257 | 260 ft | 166 kts | 59° |
| 2026-04-30 21:55 | 55.95948 | -3.34564 | 1069 ft | 166 kts | 54° |
| 2026-04-30 21:56 | 55.96793 | -3.33048 | 1758 ft | 182 kts | 47° |
| 2026-04-30 21:56 | 55.97744 | -3.31497 | 2169 ft | 195 kts | 46° |
| 2026-04-30 21:56 | 55.98788 | -3.29815 | 2531 ft | 212 kts | 45° |
| 2026-04-30 21:56 | 55.99939 | -3.27961 | 2935 ft | 230 kts | 45° |
| 2026-04-30 21:57 | 56.01160 | -3.25991 | 3400 ft | 247 kts | 45° |
| 2026-04-30 21:57 | 56.02470 | -3.23879 | 3901 ft | 263 kts | 45° |
| 2026-04-30 21:57 | 56.03844 | -3.21660 | 4616 ft | 271 kts | 45° |
| 2026-04-30 21:57 | 56.05166 | -3.19226 | 5370 ft | 274 kts | 60° |
| 2026-04-30 21:58 | 56.05825 | -3.16120 | 6063 ft | 272 kts | 88° |
| 2026-04-30 21:58 | 56.05718 | -3.12823 | 6889 ft | 267 kts | 107° |
| 2026-04-30 21:58 | 56.04950 | -3.09866 | 7618 ft | 265 kts | 132° |
| 2026-04-30 21:58 | 56.03617 | -3.07656 | 8420 ft | 263 kts | 144° |
| 2026-04-30 21:59 | 56.02185 | -3.05696 | 9277 ft | 262 kts | 145° |
| 2026-04-30 21:59 | 56.00755 | -3.03731 | 10067 ft | 263 kts | 144° |
| 2026-04-30 21:59 | 55.99301 | -3.01712 | 10687 ft | 271 kts | 144° |
| 2026-04-30 22:00 | 55.95930 | -2.98112 | 11383 ft | 301 kts | 170° |
| 2026-04-30 22:00 | 55.91747 | -2.99906 | 12110 ft | 341 kts | 214° |
| 2026-04-30 22:00 | 55.89851 | -3.02592 | 12616 ft | 352 kts | 211° |
| 2026-04-30 22:01 | 55.87756 | -3.04833 | 13155 ft | 361 kts | 205° |
| 2026-04-30 22:01 | 55.85512 | -3.06846 | 13995 ft | 363 kts | 203° |
| 2026-04-30 22:01 | 55.83243 | -3.08768 | 14881 ft | 364 kts | 203° |
| 2026-04-30 22:01 | 55.80924 | -3.10679 | 15585 ft | 371 kts | 202° |
| 2026-04-30 22:02 | 55.78586 | -3.12570 | 16273 ft | 376 kts | 202° |
| 2026-04-30 22:02 | 55.76208 | -3.14479 | 16973 ft | 381 kts | 202° |
| 2026-04-30 22:02 | 55.73797 | -3.16405 | 17685 ft | 385 kts | 202° |
| 2026-04-30 22:02 | 55.71340 | -3.18363 | 18352 ft | 391 kts | 202° |
| 2026-04-30 22:03 | 55.68853 | -3.20330 | 19076 ft | 394 kts | 201° |
| 2026-04-30 22:03 | 55.66283 | -3.21884 | 19827 ft | 394 kts | 193° |
| 2026-04-30 22:03 | 55.63578 | -3.22758 | 20559 ft | 396 kts | 185° |
| 2026-04-30 22:03 | 55.60856 | -3.22910 | 21264 ft | 398 kts | 177° |
| 2026-04-30 22:04 | 55.58101 | -3.22338 | 21909 ft | 402 kts | 169° |
| 2026-04-30 22:04 | 55.55413 | -3.21032 | 22585 ft | 405 kts | 161° |
| 2026-04-30 22:04 | 55.50431 | -3.16261 | 23818 ft | 416 kts | 145° |
| 2026-04-30 22:05 | 55.48268 | -3.12872 | 24325 ft | 425 kts | 137° |
| 2026-04-30 22:05 | 55.46394 | -3.08818 | 24947 ft | 431 kts | 128° |
| 2026-04-30 22:05 | 55.44882 | -3.04294 | 25211 ft | 436 kts | 120° |
| 2026-04-30 22:05 | 55.43756 | -2.99352 | 25221 ft | 436 kts | 113° |
| 2026-04-30 22:06 | 55.42753 | -2.94316 | 25223 ft | 436 kts | 115° |
| 2026-04-30 22:06 | 55.40468 | -2.84517 | 25235 ft | 434 kts | 118° |
| 2026-04-30 22:06 | 55.39183 | -2.79714 | 25227 ft | 433 kts | 120° |
| 2026-04-30 22:07 | 55.37859 | -2.75039 | 25227 ft | 431 kts | 121° |
| 2026-04-30 22:07 | 55.36476 | -2.70340 | 25232 ft | 432 kts | 122° |
| 2026-04-30 22:07 | 55.35075 | -2.65709 | 25235 ft | 432 kts | 122° |
| 2026-04-30 22:07 | 55.33660 | -2.61123 | 25236 ft | 430 kts | 122° |
| 2026-04-30 22:08 | 55.32211 | -2.56490 | 25238 ft | 432 kts | 123° |
| 2026-04-30 22:08 | 55.30764 | -2.51918 | 25236 ft | 432 kts | 123° |
| 2026-04-30 22:08 | 55.29295 | -2.47309 | 25236 ft | 431 kts | 123° |
| 2026-04-30 22:08 | 55.27837 | -2.42766 | 25236 ft | 432 kts | 123° |
| 2026-04-30 22:09 | 55.26334 | -2.38111 | 25241 ft | 448 kts | 123° |
| 2026-04-30 22:09 | 55.24768 | -2.33286 | 25269 ft | 463 kts | 123° |
| 2026-04-30 22:09 | 55.23176 | -2.28392 | 25589 ft | 471 kts | 123° |
| 2026-04-30 22:09 | 55.21546 | -2.23391 | 26287 ft | 471 kts | 123° |
| 2026-04-30 22:10 | 55.19941 | -2.18474 | 27138 ft | 468 kts | 123° |
| 2026-04-30 22:10 | 55.18341 | -2.13590 | 28036 ft | 464 kts | 123° |
| 2026-04-30 22:10 | 55.16756 | -2.08762 | 28803 ft | 461 kts | 123° |
| 2026-04-30 22:10 | 55.15152 | -2.03887 | 29464 ft | 460 kts | 123° |
| 2026-04-30 22:11 | 55.11976 | -1.94274 | 30746 ft | 458 kts | 124° |
| 2026-04-30 22:11 | 55.10403 | -1.89527 | 31392 ft | 456 kts | 124° |